Time;durP1;ratioP1;P1;durP2;ratioP2;P2;SDS_P1;SDS_P2;PMS_P1;PMS_P2;Temp;Humidity;BMP_temperature;BMP_pressure;BME280_temperature;BME280_humidity;BME280_pressure;Samples;Min_cycle;Max_cycle;Signal;HPM_P1;HPM_P2
2021/09/24 00:00:29;;;;;;;;;;;;;;;21.91;47.14;95896.09;1044420;28;1115;-57
2021/09/24 00:01:01;;;;;;;;;;;;;;;21.92;47.06;95892.41;1044661;28;939;-58
2021/09/24 00:01:32;;;;;;;;;;;;;;;21.92;47.16;95897.69;1040562;28;2533;-57
2021/09/24 00:02:02;;;;;;;;;;;;;;;21.92;47.20;95896.88;1043365;28;1749;-53
2021/09/24 00:02:33;;;;;;;;;;;;;;;21.91;47.00;95893.44;1051600;28;812;-56
2021/09/24 00:03:03;;;;;;;;;;;;;;;21.90;47.07;95891.91;1045298;28;1889;-54
2021/09/24 00:03:37;;;;;;;;;;;;;;;21.92;47.33;95899.53;1046729;28;1158;-56
2021/09/24 00:04:11;;;;;;;;;;;;;;;21.91;46.85;95890.03;1047629;28;1038;-55
2021/09/24 00:04:41;;;;;;;;;;;;;;;21.91;47.01;95890.81;1043450;28;1205;-54
2021/09/24 00:05:12;;;;;;;;;;;;;;;21.92;46.95;95896.88;1044353;28;1213;-55
2021/09/24 00:05:42;;;;;;;;;;;;;;;21.92;46.98;95900.31;1044400;28;1709;-52
2021/09/24 00:06:12;;;;;;;;;;;;;;;21.92;46.91;95896.88;1044372;28;1275;-52
2021/09/24 00:06:43;;;;;;;;;;;;;;;21.91;46.94;95895.31;1043947;28;1555;-57
2021/09/24 00:07:13;;;;;;;;;;;;;;;21.89;47.09;95898.22;1044392;28;1350;-53
2021/09/24 00:07:44;;;;;;;;;;;;;;;21.90;46.99;95902.44;1044016;28;958;-57
2021/09/24 00:08:14;;;;;;;;;;;;;;;21.90;46.94;95899.81;1042374;28;2392;-53
2021/09/24 00:08:45;;;;;;;;;;;;;;;21.91;46.86;95897.97;1044138;28;1188;-54
2021/09/24 00:09:15;;;;;;;;;;;;;;;21.91;46.86;95897.97;1044224;28;1186;-54
2021/09/24 00:09:45;;;;;;;;;;;;;;;21.90;47.04;95899.81;1044434;28;1047;-55
2021/09/24 00:10:16;;;;;;;;;;;;;;;21.90;46.80;95894.53;1044370;28;1198;-54
2021/09/24 00:10:46;;;;;;;;;;;;;;;21.91;46.84;95900.59;1044379;28;1045;-55
2021/09/24 00:11:17;;;;;;;;;;;;;;;21.90;47.00;95897.16;1042881;28;1442;-54
2021/09/24 00:11:47;;;;;;;;;;;;;;;21.90;46.82;95899.81;1041700;28;1198;-56
2021/09/24 00:12:17;;;;;;;;;;;;;;;21.89;46.77;95898.22;1044341;28;1181;-55
2021/09/24 00:12:48;;;;;;;;;;;;;;;21.89;46.97;95895.59;1043840;28;2020;-56
2021/09/24 00:13:18;;;;;;;;;;;;;;;21.90;47.03;95896.38;1042653;28;1518;-57
2021/09/24 00:13:48;;;;;;;;;;;;;;;21.90;46.81;95894.53;1044367;28;1137;-55
2021/09/24 00:14:19;;;;;;;;;;;;;;;21.90;46.80;95893.75;1036308;28;1537;-55
2021/09/24 00:14:49;;;;;;;;;;;;;;;21.90;46.89;95894.53;1043795;28;1024;-56
2021/09/24 00:15:19;;;;;;;;;;;;;;;21.90;46.78;95891.09;1044559;28;1194;-57
2021/09/24 00:15:50;;;;;;;;;;;;;;;21.89;46.95;95895.59;1044288;28;1415;-56
2021/09/24 00:16:21;;;;;;;;;;;;;;;21.88;46.69;95894.78;1044341;28;1146;-56
2021/09/24 00:16:51;;;;;;;;;;;;;;;21.90;46.82;95899.00;1044503;28;1075;-57
2021/09/24 00:17:21;;;;;;;;;;;;;;;21.89;47.06;95892.94;1044794;28;1177;-55
2021/09/24 00:17:52;;;;;;;;;;;;;;;21.89;46.67;95895.59;1043220;28;1079;-57
2021/09/24 00:18:22;;;;;;;;;;;;;;;21.88;46.88;95892.16;1043216;28;2035;-56
2021/09/24 00:18:52;;;;;;;;;;;;;;;21.89;47.03;95890.31;1043131;28;954;-57
2021/09/24 00:19:23;;;;;;;;;;;;;;;21.89;46.97;95895.59;1052592;28;1509;-56
2021/09/24 00:19:53;;;;;;;;;;;;;;;21.88;46.87;95891.38;1052578;28;1930;-53
2021/09/24 00:20:24;;;;;;;;;;;;;;;21.88;46.74;95891.38;1052470;28;1159;-57
2021/09/24 00:20:54;;;;;;;;;;;;;;;21.88;46.73;95896.66;1052266;28;1185;-56
2021/09/24 00:21:24;;;;;;;;;;;;;;;21.89;46.82;95892.94;1044500;28;1265;-57
2021/09/24 00:21:55;;;;;;;;;;;;;;;21.87;46.67;95884.50;1043300;28;1893;-53
2021/09/24 00:22:25;;;;;;;;;;;;;;;21.87;46.70;95889.78;1044372;28;1111;-57
2021/09/24 00:22:55;;;;;;;;;;;;;;;21.87;46.68;95884.50;1044049;28;1339;-57
2021/09/24 00:23:25;;;;;;;;;;;;;;;21.88;47.05;95886.09;1041581;28;2010;-56
2021/09/24 00:23:56;;;;;;;;;;;;;;;21.88;46.81;95880.81;1045242;28;1564;-56
2021/09/24 00:24:26;;;;;;;;;;;;;;;21.88;47.00;95884.22;1044591;28;1205;-56
2021/09/24 00:24:56;;;;;;;;;;;;;;;21.88;46.75;95885.31;1045236;28;1072;-56
2021/09/24 00:25:27;;;;;;;;;;;;;;;21.88;46.95;95887.94;1045400;28;1162;-57
2021/09/24 00:25:57;;;;;;;;;;;;;;;21.88;46.88;95880.03;1044857;28;1355;-57
2021/09/24 00:26:28;;;;;;;;;;;;;;;21.87;46.62;95884.50;1045433;28;1099;-56
2021/09/24 00:26:58;;;;;;;;;;;;;;;21.87;46.76;95887.16;1045167;28;958;-55
2021/09/24 00:27:29;;;;;;;;;;;;;;;21.86;46.66;95878.44;1045663;28;1339;-55
2021/09/24 00:28:00;;;;;;;;;;;;;;;21.87;46.72;95884.50;1045143;28;930;-54
2021/09/24 00:28:31;;;;;;;;;;;;;;;21.88;46.78;95882.66;1044453;28;1950;-56
2021/09/24 00:29:01;;;;;;;;;;;;;;;21.86;46.88;95888.22;1043914;28;878;-53
2021/09/24 00:29:31;;;;;;;;;;;;;;;21.86;46.87;95880.31;1045504;28;802;-53
2021/09/24 00:30:02;;;;;;;;;;;;;;;21.87;46.63;95879.25;1044818;28;1374;-56
2021/09/24 00:30:32;;;;;;;;;;;;;;;21.87;46.82;95876.59;1045157;28;1166;-53
2021/09/24 00:31:03;;;;;;;;;;;;;;;21.86;46.90;95875.81;1040359;28;1420;-58
2021/09/24 00:31:33;;;;;;;;;;;;;;;21.87;47.01;95879.25;1041002;28;1222;-56
2021/09/24 00:32:04;;;;;;;;;;;;;;;21.87;46.76;95876.59;1044816;28;1093;-55
2021/09/24 00:32:34;;;;;;;;;;;;;;;21.86;46.54;95873.16;1040224;28;1453;-57
2021/09/24 00:33:04;;;;;;;;;;;;;;;21.86;46.59;95867.13;1043526;28;1520;-57
2021/09/24 00:33:35;;;;;;;;;;;;;;;21.86;46.66;95862.59;1043808;28;1976;-57
2021/09/24 00:34:05;;;;;;;;;;;;;;;21.86;47.06;95865.25;1044400;28;1086;-55
2021/09/24 00:34:35;;;;;;;;;;;;;;;21.85;46.74;95868.19;1048413;28;1359;-52
2021/09/24 00:35:06;;;;;;;;;;;;;;;21.86;46.51;95867.13;1044728;28;1367;-55
2021/09/24 00:35:36;;;;;;;;;;;;;;;21.85;46.63;95863.69;1048172;28;1614;-54
2021/09/24 00:36:07;;;;;;;;;;;;;;;21.86;46.84;95865.25;1048903;28;1385;-52
2021/09/24 00:36:37;;;;;;;;;;;;;;;21.85;46.84;95871.59;1048038;28;1842;-53
2021/09/24 00:37:07;;;;;;;;;;;;;;;21.86;46.92;95875.03;1053053;28;1100;-55
2021/09/24 00:37:38;;;;;;;;;;;;;;;21.86;46.55;95870.53;1045342;28;756;-55
2021/09/24 00:38:08;;;;;;;;;;;;;;;21.85;46.88;95868.97;1045109;28;1072;-53
2021/09/24 00:38:39;;;;;;;;;;;;;;;21.85;46.69;95874.25;1043800;28;2183;-57
2021/09/24 00:39:10;;;;;;;;;;;;;;;21.86;46.84;95872.41;1045119;28;1081;-53
2021/09/24 00:39:40;;;;;;;;;;;;;;;21.85;46.70;95873.44;1045290;28;1091;-57
2021/09/24 00:40:10;;;;;;;;;;;;;;;21.84;46.90;95875.28;1045336;28;1906;-56
2021/09/24 00:40:41;;;;;;;;;;;;;;;21.84;46.82;95863.97;1041331;28;1005;-52
2021/09/24 00:41:11;;;;;;;;;;;;;;;21.85;46.90;95865.53;1045103;28;1215;-57
2021/09/24 00:41:41;;;;;;;;;;;;;;;21.85;46.84;95870.81;1045231;28;1136;-52
2021/09/24 00:42:12;;;;;;;;;;;;;;;21.84;46.84;95870.03;1046342;28;1139;-52
2021/09/24 00:42:42;;;;;;;;;;;;;;;21.84;46.85;95866.63;1048818;28;1102;-55
2021/09/24 00:43:12;;;;;;;;;;;;;;;21.84;46.92;95862.09;1045272;28;1209;-56
2021/09/24 00:43:43;;;;;;;;;;;;;;;21.85;46.75;95865.53;1043636;28;1871;-54
2021/09/24 00:44:13;;;;;;;;;;;;;;;21.84;46.54;95869.25;1043504;28;1753;-53
2021/09/24 00:44:47;;;;;;;;;;;;;;;21.84;46.82;95856.06;1044946;28;1237;-56
2021/09/24 00:45:17;;;;;;;;;;;;;;;21.84;46.53;95856.81;1045301;28;1271;-57
2021/09/24 00:45:48;;;;;;;;;;;;;;;21.85;46.95;95857.63;1045312;28;1464;-52
2021/09/24 00:46:18;;;;;;;;;;;;;;;21.84;46.61;95853.41;1053230;28;1275;-56
2021/09/24 00:46:48;;;;;;;;;;;;;;;21.84;46.81;95861.34;1053234;28;1406;-55
2021/09/24 00:47:19;;;;;;;;;;;;;;;21.84;46.64;95856.81;1053214;28;1280;-56
2021/09/24 00:47:51;;;;;;;;;;;;;;;21.82;46.89;95853.69;1051272;28;1052;-56
2021/09/24 00:48:21;;;;;;;;;;;;;;;21.84;46.93;95858.69;1045289;28;1119;-57
2021/09/24 00:48:52;;;;;;;;;;;;;;;21.83;46.50;95850.00;1043790;28;2043;-57
2021/09/24 00:49:22;;;;;;;;;;;;;;;21.85;46.73;95860.25;1042390;28;2160;-57
2021/09/24 00:49:52;;;;;;;;;;;;;;;21.85;46.60;95860.25;1044079;28;2103;-56
2021/09/24 00:50:23;;;;;;;;;;;;;;;21.85;46.76;95857.63;1048027;28;2321;-56
2021/09/24 00:50:53;;;;;;;;;;;;;;;21.84;46.61;95856.06;1047063;28;2273;-54
2021/09/24 00:51:24;;;;;;;;;;;;;;;21.85;46.69;95857.63;1047527;28;1974;-55
2021/09/24 00:51:54;;;;;;;;;;;;;;;21.84;46.56;95856.81;1044848;28;2227;-56
2021/09/24 00:52:24;;;;;;;;;;;;;;;21.83;46.84;95857.91;1040985;28;2227;-56
2021/09/24 00:52:55;;;;;;;;;;;;;;;21.84;46.46;95863.97;1048291;28;2449;-57
2021/09/24 00:53:25;;;;;;;;;;;;;;;21.83;46.61;95863.19;1049682;28;2250;-56
2021/09/24 00:53:55;;;;;;;;;;;;;;;21.84;46.52;95858.69;1050234;28;2751;-56
2021/09/24 00:54:26;;;;;;;;;;;;;;;21.84;46.82;95848.16;1049797;28;2258;-57
2021/09/24 00:54:56;;;;;;;;;;;;;;;21.84;46.77;95856.06;1041444;28;2439;-55
2021/09/24 00:55:27;;;;;;;;;;;;;;;21.84;46.72;95854.19;1046520;28;2225;-55
2021/09/24 00:55:58;;;;;;;;;;;;;;;21.83;46.70;95852.63;1044914;28;2573;-58
2021/09/24 00:56:28;;;;;;;;;;;;;;;21.83;46.62;95857.13;1045749;28;2727;-55
2021/09/24 00:57:01;;;;;;;;;;;;;;;21.84;46.55;95856.06;1046939;28;2204;-57
2021/09/24 00:57:33;;;;;;;;;;;;;;;21.83;46.74;95857.91;1043692;28;2468;-53
2021/09/24 00:58:03;;;;;;;;;;;;;;;21.83;46.57;95852.63;1044309;28;1485;-54
2021/09/24 00:58:34;;;;;;;;;;;;;;;21.84;46.79;95853.41;1042820;28;2609;-57
2021/09/24 00:59:04;;;;;;;;;;;;;;;21.83;46.72;95847.34;1042380;28;2131;-56
2021/09/24 00:59:35;;;;;;;;;;;;;;;21.83;46.79;95852.63;1045450;28;1099;-56
2021/09/24 01:00:05;;;;;;;;;;;;;;;21.83;46.52;95860.53;1044994;28;1887;-55
2021/09/24 01:00:35;;;;;;;;;;;;;;;21.83;46.69;95863.19;1045294;28;1157;-58
2021/09/24 01:01:06;;;;;;;;;;;;;;;21.82;46.83;95852.91;1043620;28;2338;-56
2021/09/24 01:01:36;;;;;;;;;;;;;;;21.83;46.68;95862.38;1041705;28;2473;-53
2021/09/24 01:02:06;;;;;;;;;;;;;;;21.82;46.87;95858.97;1044223;28;1721;-53
2021/09/24 01:02:37;;;;;;;;;;;;;;;21.82;46.67;95856.31;1044149;28;839;-57
2021/09/24 01:03:07;;;;;;;;;;;;;;;21.82;46.71;95851.03;1044508;28;1096;-56
2021/09/24 01:03:38;;;;;;;;;;;;;;;21.83;46.71;95857.13;1044518;28;2183;-52
2021/09/24 01:04:08;;;;;;;;;;;;;;;21.83;46.61;95857.13;1039421;28;2113;-54
2021/09/24 01:04:38;;;;;;;;;;;;;;;21.82;46.53;95858.19;1040646;28;907;-53
2021/09/24 01:05:09;;;;;;;;;;;;;;;21.82;46.64;95851.03;1044264;28;1155;-56
2021/09/24 01:05:39;;;;;;;;;;;;;;;21.81;46.90;95849.47;1044767;28;1701;-57
2021/09/24 01:06:10;;;;;;;;;;;;;;;21.81;46.47;95852.13;1045125;28;1271;-54
2021/09/24 01:06:40;;;;;;;;;;;;;;;21.82;46.71;95856.31;1045176;28;1047;-57
2021/09/24 01:07:12;;;;;;;;;;;;;;;21.83;46.35;95857.13;1045363;28;1127;-56
2021/09/24 01:07:45;;;;;;;;;;;;;;;21.82;46.39;95850.28;1044873;28;1158;-52
2021/09/24 01:08:16;;;;;;;;;;;;;;;21.82;46.77;95853.69;1044986;28;1127;-57
2021/09/24 01:08:47;;;;;;;;;;;;;;;21.82;46.71;95858.97;1044329;28;2439;-56
2021/09/24 01:09:20;;;;;;;;;;;;;;;21.81;46.61;95857.41;1042612;28;2134;-56
2021/09/24 01:10:11;;;;;;;;;;;;;;;21.82;46.43;95856.31;1042258;28;1279;-55
2021/09/24 01:10:46;;;;;;;;;;;;;;;21.82;46.67;95858.19;1039775;28;2480;-53
2021/09/24 01:11:21;;;;;;;;;;;;;;;21.82;46.62;95860.84;1048830;28;1317;-57
2021/09/24 01:12:01;;;;;;;;;;;;;;;21.81;46.49;95860.03;1043449;28;1213;-54
2021/09/24 01:12:52;;;;;;;;;;;;;;;21.82;46.72;95871.38;1043516;28;1560;-55
2021/09/24 01:13:23;;;;;;;;;;;;;;;21.81;46.35;95867.13;1044726;28;1317;-57
2021/09/24 01:13:53;;;;;;;;;;;;;;;21.81;46.56;95865.31;1045589;28;2450;-56
2021/09/24 01:14:28;;;;;;;;;;;;;;;21.81;46.59;95867.94;1047014;28;1787;-55
2021/09/24 01:15:03;;;;;;;;;;;;;;;21.81;46.79;95870.59;1051218;28;1512;-53
2021/09/24 01:15:42;;;;;;;;;;;;;;;21.81;46.39;95873.22;1047002;28;1508;-56
2021/09/24 01:16:33;;;;;;;;;;;;;;;21.81;46.84;95875.03;1045452;28;1174;-54
2021/09/24 01:17:23;;;;;;;;;;;;;;;21.81;46.72;95869.75;1044790;28;1551;-55
2021/09/24 01:17:54;;;;;;;;;;;;;;;21.81;46.73;95875.03;1041973;28;1081;-57
2021/09/24 01:18:25;;;;;;;;;;;;;;;21.81;46.47;95875.88;1045071;28;1170;-57
2021/09/24 01:18:56;;;;;;;;;;;;;;;21.80;46.55;95874.25;1042815;28;2146;-57
2021/09/24 01:19:26;;;;;;;;;;;;;;;21.81;46.83;95875.03;1044591;28;1116;-54
2021/09/24 01:19:57;;;;;;;;;;;;;;;21.81;46.32;95872.41;1044862;28;1906;-51
2021/09/24 01:20:27;;;;;;;;;;;;;;;21.81;46.56;95875.03;1044570;28;1181;-53
2021/09/24 01:21:01;;;;;;;;;;;;;;;21.80;46.41;95868.97;1040811;28;1556;-55
2021/09/24 01:21:52;;;;;;;;;;;;;;;21.80;46.76;95868.97;1039796;28;2124;-57
2021/09/24 01:22:26;;;;;;;;;;;;;;;21.81;46.61;95869.75;1044636;28;1147;-55
2021/09/24 01:23:16;;;;;;;;;;;;;;;21.80;46.74;95873.50;1043939;28;1443;-57
2021/09/24 01:24:07;;;;;;;;;;;;;;;21.78;46.52;95871.09;1044846;28;1149;-55
2021/09/24 01:24:37;;;;;;;;;;;;;;;21.78;46.76;95865.06;1044768;28;1143;-57
2021/09/24 01:25:08;;;;;;;;;;;;;;;21.78;46.51;95865.06;1043923;28;1726;-57
2021/09/24 01:25:38;;;;;;;;;;;;;;;21.79;46.44;95863.97;1045053;28;804;-56
2021/09/24 01:26:09;;;;;;;;;;;;;;;21.78;46.77;95860.53;1044559;28;1312;-56
2021/09/24 01:26:49;;;;;;;;;;;;;;;21.79;46.66;95866.63;1049517;28;2452;-52
2021/09/24 01:27:39;;;;;;;;;;;;;;;21.80;46.63;95865.56;1050543;28;1064;-54
2021/09/24 01:28:29;;;;;;;;;;;;;;;21.78;46.50;95862.41;1048047;28;984;-56
2021/09/24 01:29:20;;;;;;;;;;;;;;;21.80;46.51;95862.94;1044070;28;2255;-55
2021/09/24 01:29:51;;;;;;;;;;;;;;;21.79;46.64;95863.97;1045338;28;1194;-54
2021/09/24 01:30:21;;;;;;;;;;;;;;;21.78;46.44;95871.09;1045243;28;1118;-55
2021/09/24 01:30:52;;;;;;;;;;;;;;;21.78;46.87;95865.06;1044952;28;1121;-57
2021/09/24 01:31:22;;;;;;;;;;;;;;;21.79;46.52;95871.91;1045067;28;1173;-55
2021/09/24 01:31:53;;;;;;;;;;;;;;;21.79;46.37;95869.25;1053074;28;1347;-54
2021/09/24 01:32:23;;;;;;;;;;;;;;;21.78;46.46;95863.19;1053091;28;1153;-54
2021/09/24 01:32:53;;;;;;;;;;;;;;;21.79;46.52;95864.78;1051921;28;1054;-53
2021/09/24 01:33:24;;;;;;;;;;;;;;;21.78;46.80;95863.19;1053018;28;1142;-56
2021/09/24 01:33:54;;;;;;;;;;;;;;;21.79;46.88;95858.69;1042601;28;2462;-56
2021/09/24 01:34:24;;;;;;;;;;;;;;;21.79;46.46;95861.34;1043208;28;1517;-55
2021/09/24 01:34:55;;;;;;;;;;;;;;;21.78;46.66;95868.47;1045412;28;1037;-55
2021/09/24 01:35:25;;;;;;;;;;;;;;;21.79;46.66;95866.63;1044792;28;1111;-52
2021/09/24 01:35:55;;;;;;;;;;;;;;;21.79;46.55;95863.97;1045207;28;1256;-55
2021/09/24 01:36:26;;;;;;;;;;;;;;;21.79;46.58;95869.25;1044705;28;1320;-54
2021/09/24 01:36:56;;;;;;;;;;;;;;;21.78;46.73;95859.78;1045212;28;1335;-56
2021/09/24 01:37:26;;;;;;;;;;;;;;;21.78;46.54;95868.47;1045063;28;1174;-56
2021/09/24 01:37:57;;;;;;;;;;;;;;;21.77;46.78;95860.84;1044873;28;1032;-55
2021/09/24 01:38:27;;;;;;;;;;;;;;;21.77;46.46;95868.75;1045193;28;1092;-53
2021/09/24 01:39:07;;;;;;;;;;;;;;;21.78;46.42;95865.06;1042165;28;2032;-56
2021/09/24 01:39:38;;;;;;;;;;;;;;;21.78;46.66;95865.06;1044559;28;1151;-55
2021/09/24 01:40:26;;;;;;;;;;;;;;;21.78;46.56;95870.34;1044732;28;1910;-54
2021/09/24 01:40:56;;;;;;;;;;;;;;;21.77;46.51;95863.47;1042144;28;1867;-56
2021/09/24 01:41:26;;;;;;;;;;;;;;;21.77;46.40;95868.75;1044124;28;1982;-56
2021/09/24 01:41:57;;;;;;;;;;;;;;;21.77;46.53;95856.34;1045000;28;1092;-53
2021/09/24 01:42:27;;;;;;;;;;;;;;;21.76;46.46;95865.31;1052038;28;1246;-52
2021/09/24 01:42:57;;;;;;;;;;;;;;;21.77;46.53;95863.47;1049042;28;1145;-50
2021/09/24 01:43:28;;;;;;;;;;;;;;;21.78;46.70;95859.78;1048341;28;1479;-54
2021/09/24 01:43:58;;;;;;;;;;;;;;;21.78;46.58;95860.53;1045796;28;2218;-57
2021/09/24 01:44:28;;;;;;;;;;;;;;;21.78;46.68;95865.06;1044057;28;1050;-55
2021/09/24 01:44:59;;;;;;;;;;;;;;;21.76;46.49;95862.69;1045203;28;1037;-53
2021/09/24 01:45:29;;;;;;;;;;;;;;;21.77;46.33;95859.00;1043496;28;1401;-55
2021/09/24 01:45:59;;;;;;;;;;;;;;;21.77;46.39;95858.19;1044309;28;1374;-57
2021/09/24 01:46:30;;;;;;;;;;;;;;;21.76;46.47;95857.41;1045029;28;1438;-53
2021/09/24 01:47:00;;;;;;;;;;;;;;;21.76;46.34;95856.63;1044670;28;1408;-54
2021/09/24 01:47:31;;;;;;;;;;;;;;;21.77;46.36;95855.56;1044623;28;1206;-55
2021/09/24 01:48:01;;;;;;;;;;;;;;;21.77;46.36;95861.63;1043540;28;1025;-56
2021/09/24 01:48:31;;;;;;;;;;;;;;;21.77;46.59;95850.28;1045029;28;927;-55
2021/09/24 01:49:02;;;;;;;;;;;;;;;21.76;46.43;95857.41;1042404;28;1664;-54
2021/09/24 01:49:32;;;;;;;;;;;;;;;21.76;46.51;95849.50;1045218;28;954;-57
2021/09/24 01:50:06;;;;;;;;;;;;;;;21.77;46.50;95858.19;1044797;28;1044;-55
2021/09/24 01:50:36;;;;;;;;;;;;;;;21.77;46.38;95850.28;1045193;28;1115;-49
2021/09/24 01:51:06;;;;;;;;;;;;;;;21.76;46.48;95851.38;1045068;28;1230;-56
2021/09/24 01:51:38;;;;;;;;;;;;;;;21.78;46.30;95857.16;1045027;28;1355;-55
2021/09/24 01:52:08;;;;;;;;;;;;;;;21.77;46.39;95852.91;1044646;28;1077;-53
2021/09/24 01:52:38;;;;;;;;;;;;;;;21.76;46.58;95852.13;1044767;28;1142;-54
2021/09/24 01:53:09;;;;;;;;;;;;;;;21.77;46.61;95847.63;1044951;28;1076;-56
2021/09/24 01:53:39;;;;;;;;;;;;;;;21.76;46.47;95857.41;1043206;28;2207;-57
2021/09/24 01:54:09;;;;;;;;;;;;;;;21.75;46.44;95847.94;1043645;28;2090;-55
2021/09/24 01:54:40;;;;;;;;;;;;;;;21.76;46.22;95848.72;1051991;28;2245;-56
2021/09/24 01:55:10;;;;;;;;;;;;;;;21.76;46.64;95846.84;1050412;28;1231;-57
2021/09/24 01:55:40;;;;;;;;;;;;;;;21.77;46.43;95852.91;1048863;28;1825;-56
2021/09/24 01:56:11;;;;;;;;;;;;;;;21.77;46.44;95848.44;1052830;28;1295;-55
2021/09/24 01:56:41;;;;;;;;;;;;;;;21.77;46.67;95847.63;1044896;28;1319;-58
2021/09/24 01:57:12;;;;;;;;;;;;;;;21.76;46.38;95843.44;1044886;28;1570;-57
2021/09/24 01:57:42;;;;;;;;;;;;;;;21.77;46.68;95852.91;1044879;28;1025;-56
2021/09/24 01:58:12;;;;;;;;;;;;;;;21.76;46.68;95851.38;1044907;28;1146;-53
2021/09/24 01:58:43;;;;;;;;;;;;;;;21.76;46.47;95851.38;1044784;28;1429;-56
2021/09/24 01:59:13;;;;;;;;;;;;;;;21.76;46.23;95851.38;1045003;28;1151;-55
2021/09/24 01:59:43;;;;;;;;;;;;;;;21.76;46.43;95851.38;1042047;28;2286;-52
2021/09/24 02:00:14;;;;;;;;;;;;;;;21.76;46.50;95857.41;1044986;28;1989;-52
2021/09/24 02:00:44;;;;;;;;;;;;;;;21.76;46.33;95854.00;1044886;28;1181;-56
2021/09/24 02:01:15;;;;;;;;;;;;;;;21.75;46.52;95853.19;1053107;28;1233;-57
2021/09/24 02:01:45;;;;;;;;;;;;;;;21.75;46.42;95860.31;1051407;28;2269;-57
2021/09/24 02:02:15;;;;;;;;;;;;;;;21.75;46.47;95858.47;1052935;28;1165;-56
2021/09/24 02:02:45;;;;;;;;;;;;;;;21.75;46.47;95852.41;1051673;28;1115;-56
2021/09/24 02:03:16;;;;;;;;;;;;;;;21.75;46.66;95853.19;1044868;28;1164;-53
2021/09/24 02:03:46;;;;;;;;;;;;;;;21.75;46.59;95857.69;1045239;28;1077;-56
2021/09/24 02:04:17;;;;;;;;;;;;;;;21.75;46.74;95860.31;1043530;28;1648;-55
2021/09/24 02:04:48;;;;;;;;;;;;;;;21.75;46.58;95855.03;1041740;28;2254;-57
2021/09/24 02:05:18;;;;;;;;;;;;;;;21.75;46.44;95862.97;1044765;28;1849;-57
2021/09/24 02:05:48;;;;;;;;;;;;;;;21.75;46.45;95860.31;1045125;28;1084;-57
2021/09/24 02:06:18;;;;;;;;;;;;;;;21.75;46.32;95857.69;1044693;28;1316;-55
2021/09/24 02:06:49;;;;;;;;;;;;;;;21.75;46.68;95855.84;1044840;28;1154;-57
2021/09/24 02:07:19;;;;;;;;;;;;;;;21.76;46.47;95861.91;1044897;28;1202;-55
2021/09/24 02:07:49;;;;;;;;;;;;;;;21.76;46.29;95856.63;1044247;28;1706;-53
2021/09/24 02:08:20;;;;;;;;;;;;;;;21.75;46.65;95855.03;1044654;28;1156;-57
2021/09/24 02:08:50;;;;;;;;;;;;;;;21.75;46.42;95857.69;1040412;28;1295;-55
2021/09/24 02:09:21;;;;;;;;;;;;;;;21.74;46.41;95859.53;1040222;28;1916;-58
2021/09/24 02:09:51;;;;;;;;;;;;;;;21.74;46.34;95859.53;1042186;28;1684;-56
2021/09/24 02:10:21;;;;;;;;;;;;;;;21.75;46.30;95862.97;1040698;28;1577;-57
2021/09/24 02:10:51;;;;;;;;;;;;;;;21.75;46.46;95860.31;1044430;28;1081;-53
2021/09/24 02:11:22;;;;;;;;;;;;;;;21.75;46.52;95865.59;1044681;28;1199;-56
2021/09/24 02:11:52;;;;;;;;;;;;;;;21.75;46.58;95862.97;1044499;28;1158;-56
2021/09/24 02:12:23;;;;;;;;;;;;;;;21.75;46.36;95860.31;1043815;28;2254;-57
2021/09/24 02:12:58;;;;;;;;;;;;;;;21.74;46.47;95862.16;1043405;28;2047;-57
2021/09/24 02:13:29;;;;;;;;;;;;;;;21.75;46.38;95860.31;1044719;28;1356;-56
2021/09/24 02:13:59;;;;;;;;;;;;;;;21.74;46.20;95864.03;1043529;28;1457;-55
2021/09/24 02:14:29;;;;;;;;;;;;;;;21.75;46.46;95862.97;1040856;28;2012;-57
2021/09/24 02:14:59;;;;;;;;;;;;;;;21.74;46.68;95870.09;1042980;28;1164;-56
2021/09/24 02:15:30;;;;;;;;;;;;;;;21.74;46.69;95864.03;1044870;28;871;-54
2021/09/24 02:16:00;;;;;;;;;;;;;;;21.73;46.63;95865.88;1044486;28;1367;-52
2021/09/24 02:16:31;;;;;;;;;;;;;;;21.74;46.45;95869.31;1043870;28;1947;-53
2021/09/24 02:17:03;;;;;;;;;;;;;;;21.74;46.42;95869.31;1043608;28;1065;-56
2021/09/24 02:17:33;;;;;;;;;;;;;;;21.74;46.48;95869.31;1041838;28;2243;-53
2021/09/24 02:18:04;;;;;;;;;;;;;;;21.74;46.27;95866.69;1041571;28;2329;-53
2021/09/24 02:18:34;;;;;;;;;;;;;;;21.73;46.59;95868.53;1048902;28;1316;-54
2021/09/24 02:19:05;;;;;;;;;;;;;;;21.73;46.61;95867.72;1048750;28;1136;-55
2021/09/24 02:19:35;;;;;;;;;;;;;;;21.73;46.74;95867.72;1047020;28;1874;-56
2021/09/24 02:20:06;;;;;;;;;;;;;;;21.73;46.25;95867.72;1048395;28;1902;-57
2021/09/24 02:20:36;;;;;;;;;;;;;;;21.74;46.47;95869.31;1048915;28;2062;-54
2021/09/24 02:21:07;;;;;;;;;;;;;;;21.72;46.28;95866.94;1052392;28;1068;-55
2021/09/24 02:21:37;;;;;;;;;;;;;;;21.74;46.21;95864.03;1048556;28;2537;-55
2021/09/24 02:22:07;;;;;;;;;;;;;;;21.73;46.70;95868.53;1052466;28;1140;-56
2021/09/24 02:22:38;;;;;;;;;;;;;;;21.73;46.73;95868.53;1044798;28;803;-56
2021/09/24 02:23:08;;;;;;;;;;;;;;;21.73;46.69;95868.53;1044352;28;1390;-56
2021/09/24 02:23:38;;;;;;;;;;;;;;;21.74;46.28;95869.31;1042343;28;2116;-53
2021/09/24 02:24:09;;;;;;;;;;;;;;;21.74;46.68;95880.63;1044778;28;1002;-53
2021/09/24 02:24:39;;;;;;;;;;;;;;;21.74;46.45;95874.59;1042390;28;2203;-56
2021/09/24 02:25:09;;;;;;;;;;;;;;;21.72;46.57;95871.44;1044639;28;1145;-56
2021/09/24 02:25:40;;;;;;;;;;;;;;;21.73;46.62;95875.66;1044300;28;1561;-53
2021/09/24 02:26:10;;;;;;;;;;;;;;;21.73;46.37;95873.81;1044357;28;1336;-56
2021/09/24 02:26:41;;;;;;;;;;;;;;;21.73;46.63;95884.34;1044839;28;1050;-55
2021/09/24 02:27:11;;;;;;;;;;;;;;;21.73;46.40;95875.66;1044753;28;1143;-56
2021/09/24 02:27:42;;;;;;;;;;;;;;;21.73;46.60;95879.09;1044484;28;910;-56
2021/09/24 02:28:12;;;;;;;;;;;;;;;21.72;46.55;95877.50;1044757;28;1256;-55
2021/09/24 02:28:43;;;;;;;;;;;;;;;21.72;46.63;95876.72;1044941;28;1026;-55
2021/09/24 02:29:13;;;;;;;;;;;;;;;21.73;46.53;95881.72;1045092;28;1158;-56
2021/09/24 02:29:43;;;;;;;;;;;;;;;21.72;46.72;95876.72;1042866;28;1859;-55
2021/09/24 02:30:14;;;;;;;;;;;;;;;21.72;46.32;95874.09;1044917;28;1482;-56
2021/09/24 02:30:44;;;;;;;;;;;;;;;21.73;46.32;95873.00;1045061;28;1045;-58
2021/09/24 02:31:14;;;;;;;;;;;;;;;21.73;46.37;95876.44;1044887;28;1106;-57
2021/09/24 02:31:45;;;;;;;;;;;;;;;21.72;46.69;95876.72;1044684;28;1148;-54
2021/09/24 02:32:15;;;;;;;;;;;;;;;21.72;46.57;95874.09;1044696;28;1111;-57
2021/09/24 02:32:45;;;;;;;;;;;;;;;21.72;46.42;95877.50;1041480;28;1534;-57
2021/09/24 02:33:16;;;;;;;;;;;;;;;21.71;46.63;95870.66;1044577;28;1230;-56
2021/09/24 02:33:46;;;;;;;;;;;;;;;21.72;46.48;95882.00;1044359;28;1061;-54
2021/09/24 02:34:17;;;;;;;;;;;;;;;21.72;46.32;95874.84;1044190;28;1096;-57
2021/09/24 02:34:47;;;;;;;;;;;;;;;21.70;46.51;95869.06;1043470;28;1995;-56
2021/09/24 02:35:18;;;;;;;;;;;;;;;21.70;46.57;95869.06;1044574;28;1338;-56
2021/09/24 02:35:48;;;;;;;;;;;;;;;21.72;46.17;95874.09;1044463;28;1037;-57
2021/09/24 02:36:18;;;;;;;;;;;;;;;21.71;46.32;95869.88;1043115;28;1311;-57
2021/09/24 02:36:48;;;;;;;;;;;;;;;21.71;46.53;95875.13;1044734;28;1045;-57
2021/09/24 02:37:19;;;;;;;;;;;;;;;21.71;46.22;95880.41;1044658;28;1116;-56
2021/09/24 02:37:49;;;;;;;;;;;;;;;21.71;46.48;95875.13;1044026;28;1159;-57
2021/09/24 02:38:19;;;;;;;;;;;;;;;21.71;46.36;95875.94;1044281;28;1187;-54
2021/09/24 02:38:50;;;;;;;;;;;;;;;21.72;46.51;95876.72;1044598;28;1029;-52
2021/09/24 02:39:20;;;;;;;;;;;;;;;21.71;46.43;95875.13;1044609;28;1115;-58
2021/09/24 02:39:50;;;;;;;;;;;;;;;21.71;46.35;95872.50;1039323;28;1977;-56
2021/09/24 02:40:21;;;;;;;;;;;;;;;21.71;46.40;95881.22;1040384;28;1128;-56
2021/09/24 02:40:51;;;;;;;;;;;;;;;21.71;46.35;95880.41;1048716;28;1198;-56
2021/09/24 02:41:22;;;;;;;;;;;;;;;21.71;46.14;95875.94;1048075;28;1402;-57
2021/09/24 02:41:52;;;;;;;;;;;;;;;21.71;46.32;95880.41;1052958;28;1064;-57
2021/09/24 02:42:22;;;;;;;;;;;;;;;21.71;46.38;95877.78;1052085;28;1260;-56
2021/09/24 02:42:53;;;;;;;;;;;;;;;21.70;46.26;95882.25;1044626;28;1010;-57
2021/09/24 02:43:23;;;;;;;;;;;;;;;21.71;46.32;95880.41;1052966;28;1328;-57
2021/09/24 02:43:53;;;;;;;;;;;;;;;21.71;46.26;95877.78;1052917;28;1032;-57
2021/09/24 02:44:24;;;;;;;;;;;;;;;21.70;46.32;95879.63;1048439;28;1399;-57
2021/09/24 02:44:54;;;;;;;;;;;;;;;21.72;46.61;95876.72;1051012;28;2040;-57
2021/09/24 02:45:24;;;;;;;;;;;;;;;21.72;46.46;95874.09;1044904;28;1214;-57
2021/09/24 02:45:55;;;;;;;;;;;;;;;21.71;46.41;95880.41;1043037;28;1918;-56